Hannover, Germany

1:53 PM CET on January 25, 2015 (GMT +0100)
Hannover | Change Station
CLOSE
Current Station
Personal Weather Station
Location: Wedemark,
Elevation: 210 ft
Nearby Weather Stations

Elev 210 ft 52.52 °N, 9.75 °E | Updated 52 minutes ago

Rain
Rain
36.5 °F
Feels Like 36 °F
N
0.5
Wind Variable Wind from West
Gusts 3.0 mph

Today
High -- | Low -- °F
--% Chance of Precip.
Yesterday
High -- | Low -- °F
Precip. -- in
8:13 AM 4:53 PM
Waxing Crescent, 32% visible
Pressure 30.30 in
Visibility 6.2 miles
Clouds Mostly Cloudy 500 ft
Overcast 800 ft
Windchill 36 °F
Dew Point 36 °F
Humidity 98%
Rainfall 0.11 in
Snow Depth Not available.
UV 0.0 out of 12
Pollen Not available.
Air Quality Not available.
Flu Activity Not available.
METAR EDDV 251220Z 29008KT 9999 BKN005 OVC008 03/02 Q1026 NOSIG

More Conditions Fewer Conditions

Pressure 30.30 in
Visibility 6.2 miles
Clouds Mostly Cloudy 500 ft
Overcast 800 ft
Windchill 36 °F
Dew Point 36 °F
Humidity 98%
Rainfall 0.11 in
Snow Depth Not available.
UV 0.0 out of 12
Pollen Not available.
Air Quality Not available.
Flu Activity Not available.
METAR EDDV 251220Z 29008KT 9999 BKN005 OVC008 03/02 Q1026 NOSIG

More Conditions Fewer Conditions

10-Day Weather Forecast

Almanac

Astronomy

Jan. 25, 2015 Rise Set
Actual Time
Civil Twilight
Nautical Twilight
Astronomical Twilight
Moon
Length of Visible Light
Length of Day
Tomorrow will be .
, % of the Moon is Illuminated

Today's Extremes

Country Highs Country Lows

Community

WunderPhotos

Upload Photos

1,789,875 photos uploaded!

WunderBlogs® & News

Nearby

Air Quality

  Air Quality AQ Index Pollutant
Not available.

Snow Depth

Station Depth Elevation

Earthquake Activity

City Distance Mag. Time & Date
Minimum magnitude displayed is 2.5.

Coastal Water Temperatures

Place Temperature

Nearby Weather Stations